Terminal Aerodrome Forecast
Issued by NWS

Home | Current Version | Previous Version | Text Only | Print | Product List | Glossary On
Versions: 1 2 3 4 5 6 7 8 9 10 11 12 13 14 15 16 17 18
000
FTUS44 KTSA 271700
TAFFYV
TAF
KFYV 271738Z 2718/2818 35008KT P6SM BKN040
     FM280000 00000KT P6SM BKN070
     FM281300 14007KT P6SM BKN060=

USA.gov is the U.S. government's official web portal to all federal, state and local government web resources and services.